Map

Track Data

SID SEASON NUMBER BASIN SUBBASIN NAME ISO_TIME NATURE LAT LON WMO_WIND WMO_PRES WMO_AGENCY TRACK_TYPE DIST2LAND LANDFALL IFLAG USA_AGENCY USA_ATCF_ID USA_LAT USA_LON USA_RECORD USA_STATUS USA_WIND USA_PRES USA_SSHS USA_R34_NE USA_R34_SE USA_R34_SW USA_R34_NW USA_R50_NE USA_R50_SE USA_R50_SW USA_R50_NW USA_R64_NE USA_R64_SE USA_R64_SW USA_R64_NW USA_POCI USA_ROCI USA_RMW USA_EYE TOKYO_LAT TOKYO_LON TOKYO_GRADE TOKYO_WIND TOKYO_PRES TOKYO_R50_DIR TOKYO_R50_LONG TOKYO_R50_SHORT TOKYO_R30_DIR TOKYO_R30_LONG TOKYO_R30_SHORT TOKYO_LAND CMA_LAT CMA_LON CMA_CAT CMA_WIND CMA_PRES HKO_LAT HKO_LON HKO_CAT HKO_WIND HKO_PRES NEWDELHI_LAT NEWDELHI_LON NEWDELHI_GRADE NEWDELHI_WIND NEWDELHI_PRES NEWDELHI_CI NEWDELHI_DP NEWDELHI_POCI REUNION_LAT REUNION_LON REUNION_TYPE REUNION_WIND REUNION_PRES REUNION_TNUM REUNION_CI REUNION_RMW REUNION_R34_NE REUNION_R34_SE REUNION_R34_SW REUNION_R34_NW REUNION_R50_NE REUNION_R50_SE REUNION_R50_SW REUNION_R50_NW REUNION_R64_NE REUNION_R64_SE REUNION_R64_SW REUNION_R64_NW BOM_LAT BOM_LON BOM_TYPE BOM_WIND BOM_PRES BOM_TNUM BOM_CI BOM_RMW BOM_R34_NE BOM_R34_SE BOM_R34_SW BOM_R34_NW BOM_R50_NE BOM_R50_SE BOM_R50_SW BOM_R50_NW BOM_R64_NE BOM_R64_SE BOM_R64_SW BOM_R64_NW BOM_ROCI BOM_POCI BOM_EYE BOM_POS_METHOD BOM_PRES_METHOD NADI_LAT NADI_LON NADI_CAT NADI_WIND NADI_PRES WELLINGTON_LAT WELLINGTON_LON WELLINGTON_WIND WELLINGTON_PRES DS824_LAT DS824_LON DS824_STAGE DS824_WIND DS824_PRES TD9636_LAT TD9636_LON TD9636_STAGE TD9636_WIND TD9636_PRES TD9635_LAT TD9635_LON TD9635_WIND TD9635_PRES TD9635_ROCI NEUMANN_LAT NEUMANN_LON NEUMANN_CLASS NEUMANN_WIND NEUMANN_PRES MLC_LAT MLC_LON MLC_CLASS MLC_WIND MLC_PRES USA_GUST BOM_GUST BOM_GUST_PER REUNION_GUST REUNION_GUST_PER USA_SEAHGT USA_SEARAD_NE USA_SEARAD_SE USA_SEARAD_SW USA_SEARAD_NW STORM_SPEED STORM_DIR
1999291N10309 1999 92 NA NA JOSE 1999-10-17 18:00:00 TS 9.80000 -50.8000 25 1006 hurdat_atl main 550 545 O_____________ hurdat_atl AL141999 9.80000 -50.8000 TD 25 1006 -1 11 296
1999291N10309 1999 92 NA NA JOSE 1999-10-17 21:00:00 TS 10.0402 -51.3024 main 551 551 P_____________ AL141999 10.0402 -51.3024 TD 27 1005 -1 11 297
1999291N10309 1999 92 NA NA JOSE 1999-10-18 00:00:00 TS 10.3000 -51.8000 30 1005 hurdat_atl main 559 554 O_____________ hurdat_atl AL141999 10.3000 -51.8000 TD 30 1005 -1 11 300
1999291N10309 1999 92 NA NA JOSE 1999-10-18 03:00:00 TS 10.5924 -52.2926 main 566 562 P_____________ AL141999 10.5924 -52.2926 TD 32 1004 -1 12 301
1999291N10309 1999 92 NA NA JOSE 1999-10-18 06:00:00 TS 10.9000 -52.8000 35 1004 hurdat_atl main 580 578 O_____________ hurdat_atl AL141999 10.9000 -52.8000 TS 35 1004 0 12 300
1999291N10309 1999 92 NA NA JOSE 1999-10-18 09:00:00 TS 11.1924 -53.3352 main 601 600 P_____________ AL141999 11.1924 -53.3352 TS 37 1003 0 12 299
1999291N10309 1999 92 NA NA JOSE 1999-10-18 12:00:00 TS 11.5000 -53.9000 40 1003 hurdat_atl main 628 627 O_____________ hurdat_atl AL141999 11.5000 -53.9000 TS 40 1003 0 13 300
1999291N10309 1999 92 NA NA JOSE 1999-10-18 15:00:00 TS 11.8425 -54.5075 main 651 634 P_____________ AL141999 11.8425 -54.5075 TS 40 1002 0 14 301
1999291N10309 1999 92 NA NA JOSE 1999-10-18 18:00:00 TS 12.2000 -55.1000 40 1002 hurdat_atl main 635 622 O_____________ hurdat_atl AL141999 12.2000 -55.1000 TS 40 1002 0 13 303
1999291N10309 1999 92 NA NA JOSE 1999-10-18 21:00:00 TS 12.5573 -55.6151 main 625 587 P_____________ AL141999 12.5573 -55.6151 TS 42 1001 0 12 306
1999291N10309 1999 92 NA NA JOSE 1999-10-19 00:00:00 TS 12.9000 -56.1000 45 1000 hurdat_atl main 587 554 O_____________ hurdat_atl AL141999 12.9000 -56.1000 TS 45 1000 0 12 304
1999291N10309 1999 92 NA NA JOSE 1999-10-19 03:00:00 TS 13.2074 -56.6002 main 554 527 P_____________ AL141999 13.2074 -56.6002 TS 50 997 0 11 302
1999291N10309 1999 92 NA NA JOSE 1999-10-19 06:00:00 TS 13.5000 -57.1000 55 994 hurdat_atl main 527 507 O_____________ hurdat_atl AL141999 13.5000 -57.1000 TS 55 994 0 11 300
1999291N10309 1999 92 NA NA JOSE 1999-10-19 09:00:00 TS 13.7850 -57.6152 main 507 491 P_____________ AL141999 13.7850 -57.6152 TS 57 994 0 11 302
1999291N10309 1999 92 NA NA JOSE 1999-10-19 12:00:00 TS 14.1000 -58.1000 60 994 hurdat_atl main 494 487 O_____________ hurdat_atl AL141999 14.1000 -58.1000 TS 60 994 0 11 308
1999291N10309 1999 92 NA NA JOSE 1999-10-19 15:00:00 TS 14.4849 -58.5300 main 504 498 P_____________ AL141999 14.4849 -58.5300 TS 62 993 0 11 316
1999291N10309 1999 92 NA NA JOSE 1999-10-19 18:00:00 TS 14.9000 -58.9000 65 992 hurdat_atl main 522 522 O_____________ hurdat_atl AL141999 14.9000 -58.9000 HU 65 992 1 11 322
1999291N10309 1999 92 NA NA JOSE 1999-10-19 21:00:00 TS 15.3149 -59.2077 main 550 550 P_____________ AL141999 15.3149 -59.2077 HU 67 989 1 10 324
1999291N10309 1999 92 NA NA JOSE 1999-10-20 00:00:00 TS 15.7000 -59.5000 70 987 hurdat_atl main 582 582 O_____________ hurdat_atl AL141999 15.7000 -59.5000 HU 70 987 1 9 320
1999291N10309 1999 92 NA NA JOSE 1999-10-20 03:00:00 TS 16.0224 -59.8277 main 607 607 P_____________ AL141999 16.0224 -59.8277 HU 75 983 1 9 312
1999291N10309 1999 92 NA NA JOSE 1999-10-20 06:00:00 TS 16.3000 -60.2000 80 979 hurdat_atl main 611 563 O_____________ hurdat_atl AL141999 16.3000 -60.2000 HU 80 979 1 9 305
1999291N10309 1999 92 NA CS JOSE 1999-10-20 09:00:00 TS 16.5617 -60.6359 main 560 502 P_____________ AL141999 16.5617 -60.6359 HU 82 979 1 10 300
1999291N10309 1999 92 NA CS JOSE 1999-10-20 12:00:00 TS 16.8000 -61.1000 85 980 hurdat_atl main 502 454 O_____________ hurdat_atl AL141999 16.8000 -61.1000 HU 85 980 2 10 298
1999291N10309 1999 92 NA CS JOSE 1999-10-20 15:00:00 TS 17.0359 -61.5500 main 454 431 P_____________ AL141999 17.0359 -61.5500 HU 81 981 1 10 298
1999291N10309 1999 92 NA CS JOSE 1999-10-20 16:00:00 TS 17.1000 -61.7000 80 982 hurdat_atl main 431 397 O_____________ hurdat_atl AL141999 17.1000 -61.7000 L HU 80 982 1 9 291
1999291N10309 1999 92 NA CS JOSE 1999-10-20 18:00:00 TS 17.2000 -62.0000 80 983 hurdat_atl main 397 360 O_____________ hurdat_atl AL141999 17.2000 -62.0000 HU 80 983 1 8 294
1999291N10309 1999 92 NA CS JOSE 1999-10-20 21:00:00 TS 17.3816 -62.3476 main 360 314 P_____________ AL141999 17.3816 -62.3476 HU 77 986 1 8 301
1999291N10309 1999 92 NA CS JOSE 1999-10-21 00:00:00 TS 17.6000 -62.7000 75 990 hurdat_atl main 314 257 O_____________ hurdat_atl AL141999 17.6000 -62.7000 HU 75 990 1 10 299
1999291N10309 1999 92 NA CS JOSE 1999-10-21 03:00:00 TS 17.8547 -63.2332 main 255 190 P_____________ AL141999 17.8547 -63.2332 HU 70 991 1 12 296
1999291N10309 1999 92 NA CS JOSE 1999-10-21 06:00:00 TS 18.1000 -63.8000 65 992 hurdat_atl main 190 147 O_____________ hurdat_atl AL141999 18.1000 -63.8000 HU 65 992 1 10 292
1999291N10309 1999 92 NA CS JOSE 1999-10-21 09:00:00 TS 18.2458 -64.2339 main 147 105 P_____________ AL141999 18.2458 -64.2339 HU 62 994 0 10 292
1999291N10309 1999 92 NA CS JOSE 1999-10-21 11:05:00 TS 18.4000 -64.6000 60 996 hurdat_atl main 105 85 O_____________ hurdat_atl AL141999 18.4000 -64.6000 L TS 60 996 0 12 295
1999291N10309 1999 92 NA CS JOSE 1999-10-21 12:00:00 TS 18.5000 -64.8000 60 996 hurdat_atl main 85 62 O_____________ hurdat_atl AL141999 18.5000 -64.8000 TS 60 996 0 10 305
1999291N10309 1999 92 NA CS JOSE 1999-10-21 15:00:00 TS 18.7768 -65.1610 main 61 61 P_____________ AL141999 18.7768 -65.1610 TS 57 995 0 7 317
1999291N10309 1999 92 NA NA JOSE 1999-10-21 18:00:00 TS 19.0000 -65.3000 55 994 hurdat_atl main 74 70 O_____________ hurdat_atl AL141999 19.0000 -65.3000 TS 55 994 0 6 318
1999291N10309 1999 92 NA NA JOSE 1999-10-21 21:00:00 TS 19.2000 -65.5651 main 89 89 P_____________ AL141999 19.2000 -65.5651 TS 52 993 0 6 310
1999291N10309 1999 92 NA NA JOSE 1999-10-22 00:00:00 TS 19.4000 -65.8000 50 993 hurdat_atl main 111 111 O_____________ hurdat_atl AL141999 19.4000 -65.8000 TS 50 993 0 6 316
1999291N10309 1999 92 NA NA JOSE 1999-10-22 03:00:00 TS 19.6350 -66.0024 main 134 134 P_____________ AL141999 19.6350 -66.0024 TS 50 992 0 6 330
1999291N10309 1999 92 NA NA JOSE 1999-10-22 06:00:00 TS 19.9000 -66.1000 50 992 hurdat_atl main 167 167 O_____________ hurdat_atl AL141999 19.9000 -66.1000 TS 50 992 0 6 355
1999291N10309 1999 92 NA NA JOSE 1999-10-22 09:00:00 TS 20.1925 -66.0451 main 201 201 P_____________ AL141999 20.1925 -66.0451 TS 50 992 0 6 18
1999291N10309 1999 92 NA NA JOSE 1999-10-22 12:00:00 TS 20.5000 -65.9000 50 992 hurdat_atl main 234 234 O_____________ hurdat_atl AL141999 20.5000 -65.9000 TS 50 992 0 6 24
1999291N10309 1999 92 NA NA JOSE 1999-10-22 15:00:00 TS 20.7775 -65.7648 main 268 268 P_____________ AL141999 20.7775 -65.7648 TS 50 992 0 7 25
1999291N10309 1999 92 NA NA JOSE 1999-10-22 18:00:00 TS 21.1000 -65.6000 50 993 hurdat_atl main 302 302 O_____________ hurdat_atl AL141999 21.1000 -65.6000 TS 50 993 0 8 24
1999291N10309 1999 92 NA NA JOSE 1999-10-22 21:00:00 TS 21.5200 -65.4075 main 347 347 P_____________ AL141999 21.5200 -65.4075 TS 50 993 0 10 22
1999291N10309 1999 92 NA NA JOSE 1999-10-23 00:00:00 TS 22.0000 -65.2000 50 994 hurdat_atl main 404 404 O_____________ hurdat_atl AL141999 22.0000 -65.2000 TS 50 994 0 10 21
1999291N10309 1999 92 NA NA JOSE 1999-10-23 03:00:00 TS 22.4924 -65.0073 main 462 462 P_____________ AL141999 22.4924 -65.0073 TS 50 994 0 11 20
1999291N10309 1999 92 NA NA JOSE 1999-10-23 06:00:00 TS 23.0000 -64.8000 50 995 hurdat_atl main 521 521 O_____________ hurdat_atl AL141999 23.0000 -64.8000 TS 50 995 0 11 23
1999291N10309 1999 92 NA NA JOSE 1999-10-23 09:00:00 TS 23.4850 -64.5573 main 579 579 P_____________ AL141999 23.4850 -64.5573 TS 52 995 0 11 25
1999291N10309 1999 92 NA NA JOSE 1999-10-23 12:00:00 TS 24.0000 -64.3000 55 995 hurdat_atl main 640 640 O_____________ hurdat_atl AL141999 24.0000 -64.3000 TS 55 995 0 12 23
1999291N10309 1999 92 NA NA JOSE 1999-10-23 15:00:00 TS 24.5699 -64.0645 main 710 710 P_____________ AL141999 24.5699 -64.0645 TS 55 995 0 13 21
1999291N10309 1999 92 NA NA JOSE 1999-10-23 18:00:00 TS 25.2000 -63.8000 55 995 hurdat_atl main 782 782 O_____________ hurdat_atl AL141999 25.2000 -63.8000 TS 55 995 0 14 22
1999291N10309 1999 92 NA NA JOSE 1999-10-23 21:00:00 TS 25.8849 -63.4797 main 865 865 P_____________ AL141999 25.8849 -63.4797 TS 55 995 0 15 24
1999291N10309 1999 92 NA NA JOSE 1999-10-24 00:00:00 TS 26.6000 -63.1000 55 995 hurdat_atl main 951 951 O_____________ hurdat_atl AL141999 26.6000 -63.1000 TS 55 995 0 16 27
1999291N10309 1999 92 NA NA JOSE 1999-10-24 03:00:00 TS 27.2773 -62.6791 main 1038 1038 P_____________ AL141999 27.2773 -62.6791 TS 57 992 0 16 30
1999291N10309 1999 92 NA NA JOSE 1999-10-24 06:00:00 TS 28.0000 -62.2000 60 990 hurdat_atl main 1127 1127 O_____________ hurdat_atl AL141999 28.0000 -62.2000 TS 60 990 0 17 31
1999291N10309 1999 92 NA NA JOSE 1999-10-24 09:00:00 TS 28.7674 -61.6782 main 1228 1228 P_____________ AL141999 28.7674 -61.6782 TS 62 988 0 20 30
1999291N10309 1999 92 NA NA JOSE 1999-10-24 12:00:00 TS 29.7000 -61.1000 65 987 hurdat_atl main 1342 1342 O_____________ hurdat_atl AL141999 29.7000 -61.1000 HU 65 987 1 24 26
1999291N10309 1999 92 NA NA JOSE 1999-10-24 15:00:00 TS 30.8746 -60.4931 main 1465 1354 P_____________ AL141999 30.8746 -60.4931 HU 65 987 1 27 24
1999291N10309 1999 92 NA NA JOSE 1999-10-24 18:00:00 TS 32.2000 -59.8000 65 987 hurdat_atl main 1346 1245 O_____________ hurdat_atl AL141999 32.2000 -59.8000 HU 65 987 1 29 25
1999291N10309 1999 92 NA NA JOSE 1999-10-24 21:00:00 TS 33.5116 -59.0208 main 1239 1143 P_____________ AL141999 33.5116 -59.0208 HU 62 988 0 31 28
1999291N10309 1999 92 NA NA JOSE 1999-10-25 00:00:00 TS 34.9000 -58.1000 60 990 hurdat_atl main 1138 1032 O_____________ hurdat_atl AL141999 34.9000 -58.1000 TS 60 990 0 33 28
1999291N10309 1999 92 NA NA JOSE 1999-10-25 03:00:00 TS 36.4406 -57.1181 main 1034 925 P_____________ AL141999 36.4406 -57.1181 TS 57 992 0 35 32
1999291N10309 1999 92 NA NA JOSE 1999-10-25 06:00:00 TS 37.9000 -55.8000 55 994 hurdat_atl main 922 846 O_____________ hurdat_atl AL141999 37.9000 -55.8000 TS 55 994 0 36 44
1999291N10309 1999 92 NA NA JOSE 1999-10-25 09:00:00 TS 39.0583 -53.9667 main 834 741 P_____________ AL141999 39.0583 -53.9667 TS 52 995 0 37 56
1999291N10309 1999 92 NA NA JOSE 1999-10-25 12:00:00 ET 40.0000 -51.8000 50 996 hurdat_atl main 742 O_____________ hurdat_atl AL141999 40.0000 -51.8000 EX 50 996 -4 38 60

About IBTrACS Database

This database is a web-friendly format of International Best Track Archive for Climate Stewardship (IBTrACS), a global best track data archive curated by NOAA dating back to 1842.

Updated: 2021-10-25